Randy Eckstein — WDC2803 — position and weather

sailwx.info

Track history (hours):
 
Tides and Currents Weather Stations Pressure Air Temp Water Temp Dewpoint Dewpoint Depression Visibility Wind Speed Wind Dir Waves Ship Positions

Randy Eckstein

Owner: Marquette Transportation Company Gulf-Inland, LLC, Jefferson, LA. More information available from US FCC via Universal Licensing System and Coast Guard Vessel Documentation Center.

Last reported at 2018-Jan-12 04:53 UTC. Time now 2018-Jan-19 00:09 UTC.
Position N 29°49' W 092°03'.

Length 25 m; draft 2.9 m.

Type: Towing. MMSI: 366997920.

Date/timePositionNaut miles runAvg speedWind from/ knotsBaromVisibWave heightAir tempDewpointWater temp
2018-Jan-12 04:53N 29°49' W 092°03'2 5.4
2018-Jan-12 04:30N 29°48' W 092°05'3 5.4
2018-Jan-12 04:00N 29°47' W 092°08'2 5.0
2018-Jan-12 03:30N 29°47' W 092°11'2 3.5
2018-Jan-12 03:00N 29°47' W 092°13'1 2.7
2018-Jan-12 02:30N 29°48' W 092°14'3 5.5
2018-Jan-12 02:00N 29°49' W 092°17'2 4.6
2018-Jan-12 01:28N 29°50' W 092°19'38 5.3
2018-Jan-11 18:14N 29°56' W 093°03'1 5.2
2018-Jan-11 17:57N 29°56' W 093°04'2 5.2
2018-Jan-11 17:30N 29°56' W 093°07'10 4.3
2018-Jan-11 15:06N 30°03' W 093°16'0 4.3
2018-Jan-11 15:00N 30°04' W 093°16'2 3.9
2018-Jan-11 14:31N 30°05' W 093°17'1 1.3
2018-Jan-11 14:00N 30°06' W 093°18'1 1.8
2018-Jan-11 13:30N 30°06' W 093°19'0 0.2
2018-Jan-11 13:00N 30°06' W 093°19'0 0.0
2018-Jan-11 12:30N 30°06' W 093°19'0 0.0
2018-Jan-11 12:00N 30°06' W 093°19'0 0.0
2018-Jan-11 11:30N 30°06' W 093°19'0 0.0
2018-Jan-11 11:00N 30°06' W 093°19'0 0.0
2018-Jan-11 10:30N 30°06' W 093°19'0 0.0
2018-Jan-11 10:00N 30°06' W 093°19'0 0.0
2018-Jan-11 09:29N 30°06' W 093°19'0 0.0
2018-Jan-11 09:00N 30°06' W 093°19'0 0.0
2018-Jan-11 08:30N 30°06' W 093°19'0 0.0
2018-Jan-11 08:00N 30°06' W 093°19'0 0.0
2018-Jan-11 07:30N 30°06' W 093°19'0 0.1
2018-Jan-11 07:00N 30°06' W 093°19'0 0.0
2018-Jan-11 06:30N 30°06' W 093°19'0 0.0
2018-Jan-11 06:00N 30°06' W 093°19'0 0.0
2018-Jan-11 05:30N 30°06' W 093°19'0 0.0
2018-Jan-11 05:00N 30°06' W 093°19'0 0.0
2018-Jan-11 04:30N 30°06' W 093°19'0 0.0
2018-Jan-11 04:00N 30°06' W 093°19'0 0.0
2018-Jan-11 03:30N 30°06' W 093°19'0 0.1
2018-Jan-11 03:00N 30°06' W 093°19'1 2.4
2018-Jan-11 02:30N 30°05' W 093°20'2 3.5
2018-Jan-11 02:00N 30°04' W 093°21'1 2.7
2018-Jan-11 01:30N 30°04' W 093°23'0 0.1
2018-Jan-11 01:00N 30°04' W 093°23'0 0.0
2018-Jan-11 00:30N 30°04' W 093°23'0 0.2
2018-Jan-11 00:00N 30°04' W 093°23'0 0.1
2018-Jan-10 23:30N 30°04' W 093°23'0 0.0
2018-Jan-10 23:00N 30°04' W 093°23'0 0.0
2018-Jan-10 22:29N 30°04' W 093°23'0 0.4
2018-Jan-10 22:00N 30°04' W 093°23'2 3.6
2018-Jan-10 21:30N 30°04' W 093°25'3 5.3
2018-Jan-10 21:00N 30°04' W 093°28'3 5.4
2018-Jan-10 20:30N 30°04' W 093°31'3 5.4
2018-Jan-10 20:00N 30°04' W 093°34'3 5.7
2018-Jan-10 19:30N 30°04' W 093°38'  
Track history (hours):
 
Tides and Currents Weather Stations Pressure Air Temp Water Temp Dewpoint Dewpoint Depression Visibility Wind Speed Wind Dir Waves Ship Positions

Randy Eckstein

Owner: Marquette Transportation Company Gulf-Inland, LLC, Jefferson, LA. More information available from US FCC via Universal Licensing System and Coast Guard Vessel Documentation Center.

Last reported at 2018-Jan-12 04:53 UTC. Time now 2018-Jan-19 00:09 UTC.
Position N 29°49' W 092°03'.

Length 25 m; draft 2.9 m.

Type: Towing. MMSI: 366997920.

Date/timePositionNaut miles runAvg speedWind from/ knotsBaromVisibWave heightAir tempDewpointWater temp
2018-Jan-12 04:53N 29°49' W 092°03'2 5.4
2018-Jan-12 04:30N 29°48' W 092°05'3 5.4
2018-Jan-12 04:00N 29°47' W 092°08'2 5.0
2018-Jan-12 03:30N 29°47' W 092°11'2 3.5
2018-Jan-12 03:00N 29°47' W 092°13'1 2.7
2018-Jan-12 02:30N 29°48' W 092°14'3 5.5
2018-Jan-12 02:00N 29°49' W 092°17'2 4.6
2018-Jan-12 01:28N 29°50' W 092°19'38 5.3
2018-Jan-11 18:14N 29°56' W 093°03'1 5.2
2018-Jan-11 17:57N 29°56' W 093°04'2 5.2
2018-Jan-11 17:30N 29°56' W 093°07'10 4.3
2018-Jan-11 15:06N 30°03' W 093°16'0 4.3
2018-Jan-11 15:00N 30°04' W 093°16'2 3.9
2018-Jan-11 14:31N 30°05' W 093°17'1 1.3
2018-Jan-11 14:00N 30°06' W 093°18'1 1.8
2018-Jan-11 13:30N 30°06' W 093°19'0 0.2
2018-Jan-11 13:00N 30°06' W 093°19'0 0.0
2018-Jan-11 12:30N 30°06' W 093°19'0 0.0
2018-Jan-11 12:00N 30°06' W 093°19'0 0.0
2018-Jan-11 11:30N 30°06' W 093°19'0 0.0
2018-Jan-11 11:00N 30°06' W 093°19'0 0.0
2018-Jan-11 10:30N 30°06' W 093°19'0 0.0
2018-Jan-11 10:00N 30°06' W 093°19'0 0.0
2018-Jan-11 09:29N 30°06' W 093°19'0 0.0
2018-Jan-11 09:00N 30°06' W 093°19'0 0.0
2018-Jan-11 08:30N 30°06' W 093°19'0 0.0
2018-Jan-11 08:00N 30°06' W 093°19'0 0.0
2018-Jan-11 07:30N 30°06' W 093°19'0 0.1
2018-Jan-11 07:00N 30°06' W 093°19'0 0.0
2018-Jan-11 06:30N 30°06' W 093°19'0 0.0
2018-Jan-11 06:00N 30°06' W 093°19'0 0.0
2018-Jan-11 05:30N 30°06' W 093°19'0 0.0
2018-Jan-11 05:00N 30°06' W 093°19'0 0.0
2018-Jan-11 04:30N 30°06' W 093°19'0 0.0
2018-Jan-11 04:00N 30°06' W 093°19'0 0.0
2018-Jan-11 03:30N 30°06' W 093°19'0 0.1
2018-Jan-11 03:00N 30°06' W 093°19'1 2.4
2018-Jan-11 02:30N 30°05' W 093°20'2 3.5
2018-Jan-11 02:00N 30°04' W 093°21'1 2.7
2018-Jan-11 01:30N 30°04' W 093°23'0 0.1
2018-Jan-11 01:00N 30°04' W 093°23'0 0.0
2018-Jan-11 00:30N 30°04' W 093°23'0 0.2
2018-Jan-11 00:00N 30°04' W 093°23'0 0.1
2018-Jan-10 23:30N 30°04' W 093°23'0 0.0
2018-Jan-10 23:00N 30°04' W 093°23'0 0.0
2018-Jan-10 22:29N 30°04' W 093°23'0 0.4
2018-Jan-10 22:00N 30°04' W 093°23'2 3.6
2018-Jan-10 21:30N 30°04' W 093°25'3 5.3
2018-Jan-10 21:00N 30°04' W 093°28'3 5.4
2018-Jan-10 20:30N 30°04' W 093°31'3 5.4
2018-Jan-10 20:00N 30°04' W 093°34'3 5.7
2018-Jan-10 19:30N 30°04' W 093°38'  

Dump ship's entire track history